createdAt,value
2019-05-21T00:02:00.189Z,15.74
2019-05-21T00:04:28.716Z,15.72
2019-05-21T00:06:57.120Z,15.67
2019-05-21T00:09:24.954Z,15.58
2019-05-21T00:11:52.732Z,15.58
2019-05-21T00:14:20.492Z,15.55
2019-05-21T00:16:48.402Z,15.53
2019-05-21T00:19:16.101Z,15.41
2019-05-21T00:21:43.897Z,15.45
2019-05-21T00:24:11.704Z,15.43
2019-05-21T00:26:39.455Z,15.41
2019-05-21T00:29:43.374Z,15.27
2019-05-21T00:32:47.777Z,15.31
2019-05-21T00:35:52.820Z,15.30
2019-05-21T00:38:57.103Z,15.30
2019-05-21T00:42:03.957Z,15.27
2019-05-21T00:44:35.224Z,15.18
2019-05-21T00:47:03.828Z,15.18
2019-05-21T00:49:31.875Z,15.15
2019-05-21T00:52:08.046Z,15.12
2019-05-21T00:54:29.648Z,15.08
2019-05-21T00:56:57.435Z,15.10
2019-05-21T00:59:25.335Z,15.04
2019-05-21T01:01:53.163Z,15.04
2019-05-21T01:04:21.083Z,15.01
2019-05-21T01:06:48.821Z,14.96
2019-05-21T01:09:16.672Z,14.93
2019-05-21T01:11:44.609Z,14.88
2019-05-21T01:14:12.558Z,14.84
2019-05-21T01:16:40.993Z,14.80
2019-05-21T01:19:08.846Z,14.75
2019-05-21T01:21:36.617Z,14.70
2019-05-21T01:24:04.517Z,14.67
2019-05-21T01:26:32.239Z,14.64
2019-05-21T01:29:00.000Z,14.61
2019-05-21T01:31:27.907Z,14.59
2019-05-21T01:33:55.881Z,14.57
2019-05-21T01:36:23.688Z,14.54
2019-05-21T01:38:51.448Z,14.51
2019-05-21T01:41:19.239Z,14.46
2019-05-21T01:43:47.033Z,14.42
2019-05-21T01:46:14.833Z,14.34
2019-05-21T01:48:42.639Z,14.35
2019-05-21T01:51:10.374Z,14.33
2019-05-21T01:53:38.320Z,14.30
2019-05-21T01:56:06.056Z,14.27
2019-05-21T01:58:34.624Z,14.24
2019-05-21T02:01:02.348Z,14.19
2019-05-21T02:03:30.967Z,14.15
2019-05-21T02:05:58.805Z,14.11
2019-05-21T02:08:27.113Z,14.05
2019-05-21T02:10:54.961Z,14.00
2019-05-21T02:13:22.772Z,13.96
2019-05-21T02:15:50.566Z,13.95
2019-05-21T02:18:19.080Z,13.92
2019-05-21T02:20:46.858Z,13.91
2019-05-21T02:23:14.710Z,13.67
2019-05-21T02:25:42.630Z,13.71
2019-05-21T02:28:10.507Z,13.72
2019-05-21T02:30:38.376Z,13.69
2019-05-21T02:33:06.209Z,13.67
2019-05-21T02:35:51.028Z,13.63
2019-05-21T02:38:04.424Z,13.62
2019-05-21T02:40:32.301Z,13.60
2019-05-21T02:43:00.831Z,13.54
2019-05-21T02:45:28.807Z,13.55
2019-05-21T02:47:56.598Z,13.52
2019-05-21T02:50:24.457Z,13.47
2019-05-21T02:52:52.250Z,13.41
2019-05-21T02:55:20.168Z,13.41
2019-05-21T02:57:47.889Z,13.38
2019-05-21T03:00:43.062Z,13.37
2019-05-21T03:03:13.252Z,13.35
2019-05-21T03:05:41.287Z,13.31
2019-05-21T03:08:09.242Z,13.22
2019-05-21T03:10:37.121Z,13.22
2019-05-21T03:13:05.115Z,13.25
2019-05-21T03:15:33.110Z,13.25
2019-05-21T03:18:00.911Z,13.23
2019-05-21T03:20:28.693Z,13.23
2019-05-21T03:22:56.415Z,13.20
2019-05-21T03:25:24.181Z,13.20
2019-05-21T03:27:52.114Z,13.20
2019-05-21T03:30:20.185Z,13.16
2019-05-21T03:32:47.861Z,13.17
2019-05-21T03:35:16.646Z,12.92
2019-05-21T03:37:44.335Z,12.89
2019-05-21T03:40:12.447Z,13.00
2019-05-21T03:42:40.165Z,13.06
2019-05-21T03:45:08.452Z,13.06
2019-05-21T03:47:36.540Z,13.06
2019-05-21T03:50:04.667Z,13.12
2019-05-21T03:52:32.812Z,13.10
2019-05-21T03:55:03.044Z,13.09
2019-05-21T03:57:30.495Z,12.93
2019-05-21T03:59:58.280Z,12.73
2019-05-21T04:02:26.137Z,12.85
2019-05-21T04:04:53.875Z,12.85
2019-05-21T04:07:21.787Z,12.97
2019-05-21T04:09:49.501Z,13.05
2019-05-21T04:12:17.254Z,13.10
2019-05-21T04:14:49.506Z,13.10
2019-05-21T04:17:43.114Z,13.14
2019-05-21T04:20:11.647Z,13.05
2019-05-21T04:22:51.885Z,13.11
2019-05-21T04:25:20.184Z,13.15
2019-05-21T04:27:48.144Z,13.15
2019-05-21T04:30:16.223Z,13.22
2019-05-21T04:32:43.940Z,13.26
2019-05-21T04:35:11.840Z,13.29
2019-05-21T04:37:39.593Z,13.32
2019-05-21T04:40:07.676Z,13.37
2019-05-21T04:42:35.422Z,13.37
2019-05-21T04:45:03.816Z,13.38
2019-05-21T04:47:32.114Z,13.38
2019-05-21T04:50:00.750Z,13.34
2019-05-21T04:52:28.566Z,13.39
2019-05-21T04:54:56.902Z,13.52
2019-05-21T04:57:24.804Z,13.52
2019-05-21T04:59:53.024Z,13.55
2019-05-21T05:02:20.892Z,13.62
2019-05-21T05:04:48.599Z,13.58
2019-05-21T05:07:27.482Z,13.58
2019-05-21T05:09:46.277Z,13.67
2019-05-21T05:12:14.148Z,13.74
2019-05-21T05:14:41.976Z,13.83
2019-05-21T05:17:09.761Z,13.89
2019-05-21T05:19:37.479Z,13.98
2019-05-21T05:22:05.203Z,13.98
2019-05-21T05:24:33.099Z,14.04
2019-05-21T05:27:00.867Z,14.11
2019-05-21T05:29:28.591Z,14.16
2019-05-21T05:31:58.750Z,14.35
2019-05-21T05:34:26.586Z,14.45
2019-05-21T05:36:54.344Z,14.50
2019-05-21T05:39:22.096Z,14.50
2019-05-21T05:41:49.882Z,14.50
2019-05-21T05:44:17.636Z,14.45
2019-05-21T05:46:45.448Z,14.47
2019-05-21T05:49:21.873Z,14.55
2019-05-21T05:51:49.793Z,14.59
2019-05-21T05:54:18.271Z,14.67
2019-05-21T05:56:46.078Z,14.68
2019-05-21T05:59:14.645Z,14.70
2019-05-21T06:01:42.629Z,14.73
2019-05-21T06:04:11.266Z,14.78
2019-05-21T06:06:39.311Z,14.92
2019-05-21T06:09:07.274Z,15.04
2019-05-21T06:11:35.675Z,15.17
2019-05-21T06:14:03.808Z,15.30
2019-05-21T06:16:31.911Z,15.40
2019-05-21T06:19:00.523Z,15.57
2019-05-21T06:21:28.384Z,15.65
2019-05-21T06:23:56.360Z,15.83
2019-05-21T06:26:24.294Z,15.99
2019-05-21T06:28:52.217Z,16.08
2019-05-21T06:31:19.937Z,16.14
2019-05-21T06:33:47.713Z,16.37
2019-05-21T06:36:15.627Z,16.37
2019-05-21T06:38:43.595Z,16.63
2019-05-21T06:41:11.423Z,16.81
2019-05-21T06:43:39.207Z,16.92
2019-05-21T06:46:07.137Z,17.01
2019-05-21T06:48:34.919Z,16.95
2019-05-21T06:51:02.862Z,17.16
2019-05-21T06:53:30.633Z,17.31
2019-05-21T06:55:58.436Z,17.42
2019-05-21T06:58:26.224Z,17.62
2019-05-21T07:00:53.931Z,17.62
2019-05-21T07:03:21.791Z,17.74
2019-05-21T07:05:58.640Z,17.78
2019-05-21T07:08:33.544Z,17.83
2019-05-21T07:10:49.868Z,17.87
2019-05-21T07:13:17.622Z,17.95
2019-05-21T07:15:45.497Z,17.94
2019-05-21T07:18:13.275Z,17.96
2019-05-21T07:20:40.964Z,17.79
2019-05-21T07:23:08.974Z,17.74
2019-05-21T07:25:36.678Z,17.79
2019-05-21T07:28:04.437Z,17.88
2019-05-21T07:30:32.948Z,17.96
2019-05-21T07:33:00.826Z,18.08
2019-05-21T07:35:28.642Z,18.24
2019-05-21T07:37:57.292Z,18.29
2019-05-21T07:40:25.127Z,18.30
2019-05-21T07:42:52.863Z,18.30
2019-05-21T07:45:20.777Z,18.34
2019-05-21T07:47:48.530Z,18.47
2019-05-21T07:50:16.462Z,18.54
2019-05-21T07:52:44.824Z,18.66
2019-05-21T07:55:12.804Z,18.77
2019-05-21T07:57:40.623Z,18.83
2019-05-21T08:00:09.060Z,18.88
2019-05-21T08:02:36.812Z,18.97
2019-05-21T08:05:05.086Z,19.12
2019-05-21T08:07:33.246Z,19.09
2019-05-21T08:10:01.064Z,19.20
2019-05-21T08:12:38.713Z,19.32
2019-05-21T08:14:58.542Z,19.38
2019-05-21T08:17:26.271Z,19.40
2019-05-21T08:19:54.271Z,19.46
2019-05-21T08:22:22.109Z,19.58
2019-05-21T08:24:49.940Z,19.72
2019-05-21T08:27:17.729Z,19.88
2019-05-21T08:29:45.497Z,19.99
2019-05-21T08:32:13.229Z,20.08
2019-05-21T08:34:40.983Z,20.20
2019-05-21T08:37:08.720Z,20.40
2019-05-21T08:39:36.508Z,20.67
2019-05-21T08:42:04.316Z,20.86
2019-05-21T08:44:32.077Z,20.70
2019-05-21T08:47:00.254Z,20.78
2019-05-21T08:49:28.128Z,20.88
2019-05-21T08:51:55.808Z,20.99
2019-05-21T08:54:57.997Z,20.85
2019-05-21T08:57:25.891Z,21.17
2019-05-21T08:59:53.833Z,21.17
2019-05-21T09:02:23.471Z,21.35
2019-05-21T09:04:51.474Z,21.45
2019-05-21T09:07:20.231Z,21.58
2019-05-21T09:09:50.449Z,21.60
2019-05-21T09:12:17.905Z,21.73
2019-05-21T09:14:45.775Z,21.70
2019-05-21T09:17:14.059Z,21.73
2019-05-21T09:19:42.637Z,21.86
2019-05-21T09:22:10.424Z,21.98
2019-05-21T09:24:38.265Z,22.27
2019-05-21T09:27:06.081Z,22.55
2019-05-21T09:29:33.965Z,22.48
2019-05-21T09:32:02.126Z,22.53
2019-05-21T09:34:46.022Z,22.42
2019-05-21T09:36:59.768Z,22.29
2019-05-21T09:39:28.169Z,22.48
2019-05-21T09:41:55.907Z,22.59
2019-05-21T09:44:23.676Z,22.61
2019-05-21T09:46:51.546Z,22.54
2019-05-21T09:49:19.317Z,22.47
2019-05-21T09:51:47.046Z,22.37
2019-05-21T09:54:14.837Z,22.54
2019-05-21T09:56:42.604Z,22.88
2019-05-21T09:59:26.268Z,23.21
2019-05-21T10:01:56.210Z,23.41
2019-05-21T10:04:24.076Z,23.61
2019-05-21T10:06:51.954Z,23.58
2019-05-21T10:09:20.989Z,23.46
2019-05-21T10:11:48.814Z,23.33
2019-05-21T10:14:16.767Z,22.72
2019-05-21T10:16:44.583Z,23.32
2019-05-21T10:19:12.546Z,23.76
2019-05-21T10:21:40.277Z,24.08
2019-05-21T10:24:08.226Z,24.19
2019-05-21T10:26:36.218Z,24.28
2019-05-21T10:29:12.273Z,24.47
2019-05-21T10:31:40.164Z,24.72
2019-05-21T10:34:08.011Z,24.52
2019-05-21T10:36:35.917Z,24.75
2019-05-21T10:39:05.714Z,24.97
2019-05-21T10:41:35.967Z,25.00
2019-05-21T10:44:04.118Z,25.14
2019-05-21T10:46:32.375Z,25.31
2019-05-21T10:49:00.474Z,25.40
2019-05-21T10:51:28.360Z,25.36
2019-05-21T10:53:56.204Z,24.99
2019-05-21T10:56:24.042Z,24.47
2019-05-21T10:58:51.939Z,24.35
2019-05-21T11:01:26.753Z,24.55
2019-05-21T11:04:13.394Z,24.62
2019-05-21T11:06:42.413Z,24.75
2019-05-21T11:09:16.237Z,24.83
2019-05-21T11:11:44.201Z,24.91
2019-05-21T11:14:12.551Z,25.00
2019-05-21T11:16:40.612Z,25.00
2019-05-21T11:19:08.466Z,25.13
2019-05-21T11:21:36.993Z,25.09
2019-05-21T11:24:04.832Z,25.23
2019-05-21T11:26:32.823Z,25.36
2019-05-21T11:29:00.668Z,25.33
2019-05-21T11:31:28.433Z,25.41
2019-05-21T11:33:57.238Z,25.58
2019-05-21T11:36:25.011Z,25.64
2019-05-21T11:38:52.733Z,25.69
2019-05-21T11:41:20.619Z,25.64
2019-05-21T11:43:48.417Z,25.81
2019-05-21T11:46:16.246Z,25.86
2019-05-21T11:48:44.086Z,26.26
2019-05-21T11:51:12.942Z,26.71
2019-05-21T11:53:40.817Z,26.85
2019-05-21T11:56:08.634Z,26.81
2019-05-21T11:58:39.738Z,27.12
2019-05-21T12:01:06.417Z,27.09
2019-05-21T12:03:34.225Z,26.99
2019-05-21T12:06:02.064Z,26.91
2019-05-21T12:08:29.813Z,26.84
2019-05-21T12:10:57.534Z,26.71
2019-05-21T12:13:25.262Z,26.75
2019-05-21T12:15:53.050Z,26.56
2019-05-21T12:18:20.878Z,26.52
2019-05-21T12:20:48.713Z,26.35
2019-05-21T12:23:16.495Z,25.83
2019-05-21T12:25:44.327Z,25.52
2019-05-21T12:28:12.052Z,25.69
2019-05-21T12:30:40.573Z,25.69
2019-05-21T12:33:08.364Z,25.59
2019-05-21T12:35:36.379Z,25.24
2019-05-21T12:38:04.320Z,25.20
2019-05-21T12:40:32.298Z,24.77
2019-05-21T12:43:00.757Z,24.89
2019-05-21T12:45:29.159Z,25.21
2019-05-21T12:47:56.897Z,25.39
2019-05-21T12:50:24.956Z,25.58
2019-05-21T12:52:52.848Z,25.77
2019-05-21T12:55:21.023Z,25.50
2019-05-21T12:57:48.886Z,25.47
2019-05-21T13:00:17.745Z,25.82
2019-05-21T13:02:45.854Z,25.69
2019-05-21T13:05:13.951Z,25.86
2019-05-21T13:07:41.843Z,25.62
2019-05-21T13:10:10.099Z,25.71
2019-05-21T13:12:38.090Z,25.62
2019-05-21T13:15:06.474Z,25.81
2019-05-21T13:17:34.445Z,25.65
2019-05-21T13:20:03.763Z,25.86
2019-05-21T13:22:33.067Z,25.76
2019-05-21T13:25:00.796Z,25.31
2019-05-21T13:27:28.592Z,25.32
2019-05-21T13:29:56.446Z,25.16
2019-05-21T13:32:26.189Z,25.36
2019-05-21T13:34:54.005Z,25.42
2019-05-21T13:37:21.775Z,25.36
2019-05-21T13:39:50.699Z,25.14
2019-05-21T13:42:18.697Z,24.60
2019-05-21T13:44:46.563Z,24.70
2019-05-21T13:47:15.240Z,24.99
2019-05-21T13:49:45.393Z,25.20
2019-05-21T13:52:14.902Z,25.39
2019-05-21T13:54:45.139Z,25.46
2019-05-21T13:57:14.373Z,25.58
2019-05-21T13:59:42.410Z,25.65
2019-05-21T14:02:12.531Z,25.93
2019-05-21T14:04:40.227Z,26.34
2019-05-21T14:07:08.180Z,26.56
2019-05-21T14:09:35.972Z,26.24
2019-05-21T14:12:03.817Z,26.60
2019-05-21T14:14:31.561Z,26.96
2019-05-21T14:16:59.357Z,27.09
2019-05-21T14:19:27.253Z,26.92
2019-05-21T14:21:55.333Z,26.84
2019-05-21T14:24:23.118Z,26.98
2019-05-21T14:26:50.838Z,26.65
2019-05-21T14:29:18.596Z,26.23
2019-05-21T14:31:46.310Z,26.46
2019-05-21T14:34:14.091Z,26.83
2019-05-21T14:36:41.874Z,27.15
2019-05-21T14:39:13.139Z,27.09
2019-05-21T14:41:40.953Z,27.14
2019-05-21T14:44:09.424Z,27.19
2019-05-21T14:46:37.224Z,27.43
2019-05-21T14:49:05.022Z,27.71
2019-05-21T14:51:32.788Z,27.69
2019-05-21T14:54:03.905Z,27.76
2019-05-21T14:56:31.587Z,27.64
2019-05-21T15:01:30.129Z,27.26
2019-05-21T15:03:57.995Z,27.38
2019-05-21T15:06:25.801Z,27.64
2019-05-21T15:08:53.560Z,27.78
2019-05-21T15:11:21.951Z,27.78
2019-05-21T15:13:49.684Z,27.66
2019-05-21T15:16:17.496Z,27.80
2019-05-21T15:18:45.330Z,27.62
2019-05-21T15:21:21.029Z,27.60
2019-05-21T15:23:49.332Z,27.68
2019-05-21T15:26:17.253Z,27.55
2019-05-21T15:28:45.000Z,27.37
2019-05-21T15:31:12.791Z,27.47
2019-05-21T15:33:40.536Z,27.05
2019-05-21T15:36:08.231Z,27.13
2019-05-21T15:38:49.236Z,27.17
2019-05-21T15:41:11.730Z,26.86
2019-05-21T15:43:35.852Z,26.70
2019-05-21T15:46:03.759Z,26.67
2019-05-21T15:48:31.481Z,26.23
2019-05-21T15:50:59.792Z,26.15
2019-05-21T15:53:27.674Z,25.83
2019-05-21T15:55:55.486Z,26.09
2019-05-21T15:58:26.702Z,26.22
2019-05-21T16:00:53.072Z,26.28
2019-05-21T16:03:20.834Z,25.97
2019-05-21T16:05:48.689Z,26.07
2019-05-21T16:08:16.528Z,25.78
2019-05-21T16:10:44.305Z,25.80
2019-05-21T16:13:12.661Z,25.81
2019-05-21T16:15:40.936Z,25.61
2019-05-21T16:18:08.708Z,25.39
2019-05-21T16:20:36.470Z,25.18
2019-05-21T16:23:04.721Z,25.27
2019-05-21T16:25:32.581Z,25.17
2019-05-21T16:28:00.310Z,25.24
2019-05-21T16:30:28.169Z,25.28
2019-05-21T16:32:55.987Z,25.24
2019-05-21T16:35:23.887Z,25.18
2019-05-21T16:37:51.656Z,24.87
2019-05-21T16:40:19.735Z,24.59
2019-05-21T16:42:47.562Z,23.89
2019-05-21T16:45:15.660Z,23.42
2019-05-21T16:47:46.444Z,22.87
2019-05-21T16:50:15.532Z,21.86
2019-05-21T16:52:44.189Z,22.06
2019-05-21T16:55:13.808Z,22.28
2019-05-21T16:57:41.490Z,22.43
2019-05-21T17:00:12.709Z,22.55
2019-05-21T17:02:40.494Z,22.64
2019-05-21T17:05:08.577Z,22.74
2019-05-21T17:07:36.338Z,22.75
2019-05-21T17:10:05.047Z,22.75
2019-05-21T17:12:32.756Z,22.69
2019-05-21T17:15:00.494Z,22.61
2019-05-21T17:17:28.289Z,22.25
2019-05-21T17:19:56.159Z,22.19
2019-05-21T17:22:23.875Z,21.99
2019-05-21T17:24:51.645Z,21.95
2019-05-21T17:27:19.309Z,21.84
2019-05-21T17:29:47.852Z,21.77
2019-05-21T17:32:15.563Z,21.62
2019-05-21T17:34:43.532Z,21.56
2019-05-21T17:37:11.235Z,21.44
2019-05-21T17:39:39.082Z,21.39
2019-05-21T17:42:15.115Z,21.36
2019-05-21T17:44:36.847Z,21.31
2019-05-21T17:47:04.715Z,21.29
2019-05-21T17:49:32.442Z,21.27
2019-05-21T17:52:00.576Z,21.28
2019-05-21T17:54:28.368Z,21.27
2019-05-21T17:56:59.279Z,21.27
2019-05-21T17:59:26.982Z,21.23
2019-05-21T18:01:55.293Z,21.16
2019-05-21T18:04:23.659Z,21.09
2019-05-21T18:06:52.457Z,20.78
2019-05-21T18:09:22.234Z,20.50
2019-05-21T18:11:50.567Z,20.28
2019-05-21T18:14:18.699Z,19.77
2019-05-21T18:16:46.591Z,19.63
2019-05-21T18:19:15.138Z,19.60
2019-05-21T18:21:44.391Z,19.43
2019-05-21T18:24:12.086Z,19.66
2019-05-21T18:26:39.991Z,19.67
2019-05-21T18:29:08.368Z,19.52
2019-05-21T18:31:36.846Z,19.39
2019-05-21T18:34:04.902Z,19.58
2019-05-21T18:36:32.745Z,19.72
2019-05-21T18:39:00.471Z,19.82
2019-05-21T18:41:28.235Z,19.89
2019-05-21T18:43:55.954Z,19.94
2019-05-21T18:46:24.642Z,19.98
2019-05-21T18:48:52.375Z,19.99
2019-05-21T18:51:20.255Z,19.99
2019-05-21T18:53:48.069Z,19.98
2019-05-21T18:56:15.952Z,19.96
2019-05-21T18:58:43.705Z,19.91
2019-05-21T19:01:11.733Z,19.94
2019-05-21T19:03:39.487Z,19.95
2019-05-21T19:06:07.353Z,19.94
2019-05-21T19:08:35.329Z,19.87
2019-05-21T19:11:03.391Z,19.86
2019-05-21T19:13:31.877Z,19.86
2019-05-21T19:15:59.739Z,19.81
2019-05-21T19:18:27.555Z,19.80
2019-05-21T19:20:55.275Z,19.74
2019-05-21T19:23:23.242Z,19.71
2019-05-21T19:25:50.966Z,19.66
2019-05-21T19:28:19.229Z,19.67
2019-05-21T19:30:47.326Z,19.68
2019-05-21T19:33:15.532Z,19.68
2019-05-21T19:35:43.428Z,19.67
2019-05-21T19:38:11.187Z,19.67
2019-05-21T19:40:38.879Z,19.64
2019-05-21T19:43:08.424Z,19.63
2019-05-21T19:45:36.320Z,19.60
2019-05-21T19:48:04.295Z,19.59
2019-05-21T19:50:33.080Z,19.58
2019-05-21T19:53:00.839Z,19.56
2019-05-21T19:55:29.017Z,19.50
2019-05-21T19:57:56.832Z,19.47
2019-05-21T20:00:26.549Z,19.46
2019-05-21T20:02:54.488Z,19.45
2019-05-21T20:05:22.525Z,19.40
2019-05-21T20:07:50.404Z,19.34
2019-05-21T20:10:19.265Z,19.31
2019-05-21T20:12:47.031Z,19.29
2019-05-21T20:15:15.524Z,19.21
2019-05-21T20:17:50.715Z,19.12
2019-05-21T20:20:19.687Z,19.14
2019-05-21T20:22:47.962Z,19.09
2019-05-21T20:25:17.484Z,18.87
2019-05-21T20:27:48.808Z,18.82
2019-05-21T20:30:20.022Z,18.74
2019-05-21T20:32:50.253Z,18.79
2019-05-21T20:35:22.048Z,18.80
2019-05-21T20:37:52.291Z,18.60
2019-05-21T20:40:21.700Z,18.34
2019-05-21T20:42:51.958Z,18.11
2019-05-21T20:45:27.138Z,17.90
2019-05-21T20:47:57.325Z,17.88
2019-05-21T20:50:27.981Z,17.85
2019-05-21T20:52:56.164Z,17.87
2019-05-21T20:55:25.050Z,17.91
2019-05-21T20:57:54.525Z,17.97
2019-05-21T21:00:29.716Z,17.88
2019-05-21T21:02:58.282Z,17.75
2019-05-21T21:05:26.192Z,17.73
2019-05-21T21:07:54.563Z,17.68
2019-05-21T21:10:23.146Z,17.60
2019-05-21T21:12:51.932Z,17.44
2019-05-21T21:15:20.164Z,17.19
2019-05-21T21:17:48.128Z,17.00
2019-05-21T21:20:15.942Z,16.87
2019-05-21T21:22:43.918Z,16.69
2019-05-21T21:25:12.837Z,16.62
2019-05-21T21:27:40.760Z,16.49
2019-05-21T21:30:09.482Z,16.46
2019-05-21T21:32:37.531Z,16.49
2019-05-21T21:35:06.090Z,16.51
2019-05-21T21:37:33.935Z,16.55
2019-05-21T21:40:02.073Z,16.49
2019-05-21T21:42:30.126Z,16.49
2019-05-21T21:44:57.879Z,16.42
2019-05-21T21:47:27.588Z,16.44
2019-05-21T21:49:57.030Z,16.46
2019-05-21T21:52:26.506Z,16.46
2019-05-21T21:54:54.277Z,16.46
2019-05-21T21:57:22.001Z,16.40
2019-05-21T21:59:50.389Z,16.30
2019-05-21T22:02:28.410Z,16.28
2019-05-21T22:04:57.288Z,16.25
2019-05-21T22:07:25.993Z,16.21
2019-05-21T22:09:53.943Z,16.24
2019-05-21T22:12:21.880Z,16.16
2019-05-21T22:15:01.459Z,16.14
2019-05-21T22:17:29.466Z,16.13
2019-05-21T22:19:58.134Z,16.15
2019-05-21T22:22:26.775Z,16.14
2019-05-21T22:24:54.867Z,16.15
2019-05-21T22:27:22.771Z,16.19
2019-05-21T22:29:50.581Z,16.16
2019-05-21T22:32:18.325Z,16.22
2019-05-21T22:34:46.427Z,16.28
2019-05-21T22:37:16.198Z,16.24
2019-05-21T22:39:45.283Z,16.23
2019-05-21T22:42:15.571Z,16.20
2019-05-21T22:44:43.730Z,16.18
2019-05-21T22:47:12.326Z,16.20
2019-05-21T22:49:40.169Z,16.18
2019-05-21T22:52:07.990Z,16.20
2019-05-21T22:54:35.770Z,16.20
2019-05-21T22:57:03.526Z,16.22
2019-05-21T22:59:31.285Z,16.28
2019-05-21T23:02:01.287Z,16.26
2019-05-21T23:04:29.195Z,16.26
2019-05-21T23:06:56.983Z,16.24
2019-05-21T23:09:25.086Z,16.24
2019-05-21T23:11:52.916Z,16.28
2019-05-21T23:14:20.991Z,16.26
2019-05-21T23:16:48.720Z,16.27
2019-05-21T23:19:17.618Z,16.23
2019-05-21T23:21:46.300Z,16.20
2019-05-21T23:24:18.705Z,16.17
2019-05-21T23:26:46.729Z,16.22
2019-05-21T23:29:15.079Z,16.24
2019-05-21T23:31:42.909Z,16.20
2019-05-21T23:34:10.750Z,16.19
2019-05-21T23:36:40.449Z,16.20
2019-05-21T23:39:11.097Z,16.21
2019-05-21T23:41:39.465Z,16.23
2019-05-21T23:44:07.600Z,16.21
2019-05-21T23:46:35.811Z,16.26
2019-05-21T23:49:03.833Z,16.29
2019-05-21T23:51:31.964Z,16.28
2019-05-21T23:54:00.058Z,16.30
2019-05-21T23:56:27.803Z,16.31
2019-05-21T23:58:56.254Z,16.28
